createdAt,value
2022-10-11T00:00:02.233Z,72.40
2022-10-11T00:02:31.493Z,72.40
2022-10-11T00:04:58.244Z,72.30
2022-10-11T00:07:24.932Z,72.30
2022-10-11T00:09:51.713Z,72.30
2022-10-11T00:12:18.486Z,72.30
2022-10-11T00:14:45.212Z,72.30
2022-10-11T00:17:11.998Z,72.30
2022-10-11T00:19:38.730Z,72.30
2022-10-11T00:22:05.550Z,72.40
2022-10-11T00:24:32.331Z,72.40
2022-10-11T00:26:59.088Z,72.50
2022-10-11T00:29:25.891Z,72.60
2022-10-11T00:31:52.646Z,72.60
2022-10-11T00:34:19.450Z,72.90
2022-10-11T00:36:46.258Z,73.00
2022-10-11T00:39:14.555Z,73.00
2022-10-11T00:41:41.696Z,73.00
2022-10-11T00:44:20.902Z,73.00
2022-10-11T00:47:00.426Z,73.20
2022-10-11T00:49:38.103Z,73.30
2022-10-11T00:52:22.912Z,73.50
2022-10-11T00:54:50.212Z,73.60
2022-10-11T00:57:24.268Z,73.80
2022-10-11T00:59:54.768Z,74.00
2022-10-11T01:02:23.198Z,74.10
2022-10-11T01:05:05.734Z,74.20
2022-10-11T01:07:38.886Z,74.10
2022-10-11T01:10:05.828Z,74.00
2022-10-11T01:12:33.055Z,74.00
2022-10-11T01:15:17.668Z,74.00
2022-10-11T01:18:01.321Z,73.80
2022-10-11T01:20:49.422Z,73.70
2022-10-11T01:23:43.657Z,73.50
2022-10-11T01:26:39.699Z,73.30
2022-10-11T01:29:44.668Z,73.10
2022-10-11T01:32:27.124Z,73.00
2022-10-11T01:35:06.415Z,72.90
2022-10-11T01:37:37.475Z,72.90
2022-10-11T01:40:09.577Z,72.80
2022-10-11T01:42:41.042Z,72.90
2022-10-11T01:45:10.699Z,72.90
2022-10-11T01:47:39.107Z,72.90
2022-10-11T01:50:08.053Z,72.90
2022-10-11T01:52:39.648Z,72.90
2022-10-11T01:55:12.299Z,73.10
2022-10-11T01:57:54.801Z,73.10
2022-10-11T02:00:28.062Z,73.20
2022-10-11T02:03:28.944Z,73.40
2022-10-11T02:06:17.479Z,73.60
2022-10-11T02:09:03.262Z,73.60
2022-10-11T02:11:34.790Z,73.40
2022-10-11T02:14:24.267Z,73.30
2022-10-11T02:17:07.342Z,73.40
2022-10-11T02:19:40.967Z,73.40
2022-10-11T02:22:13.503Z,73.60
2022-10-11T02:24:46.210Z,73.60
2022-10-11T02:27:15.162Z,73.60
2022-10-11T02:29:45.096Z,73.60
2022-10-11T02:32:13.038Z,73.60
2022-10-11T02:35:01.241Z,73.70
2022-10-11T02:37:37.516Z,73.80
2022-10-11T02:40:25.701Z,73.80
2022-10-11T02:42:59.273Z,74.00
2022-10-11T02:45:29.133Z,74.40
2022-10-11T02:47:56.642Z,74.90
2022-10-11T02:50:23.900Z,75.20
2022-10-11T02:52:50.687Z,75.30
2022-10-11T02:55:17.704Z,75.30
2022-10-11T02:57:44.539Z,75.20
2022-10-11T03:00:12.481Z,75.10
2022-10-11T03:02:39.253Z,74.80
2022-10-11T03:05:06.566Z,74.70
2022-10-11T03:07:33.398Z,74.60
2022-10-11T03:10:00.228Z,74.40
2022-10-11T03:12:26.921Z,74.20
2022-10-11T03:14:53.698Z,74.10
2022-10-11T03:17:35.740Z,74.00
2022-10-11T03:20:04.558Z,74.00
2022-10-11T03:22:31.377Z,73.90
2022-10-11T03:25:03.315Z,74.00
2022-10-11T03:27:31.386Z,74.00
2022-10-11T03:29:58.137Z,73.90
2022-10-11T03:32:25.123Z,74.10
2022-10-11T03:34:51.851Z,74.30
2022-10-11T03:37:18.900Z,74.70
2022-10-11T03:39:45.892Z,74.80
2022-10-11T03:42:13.920Z,74.80
2022-10-11T03:44:42.034Z,74.60
2022-10-11T03:47:09.235Z,74.60
2022-10-11T03:49:41.220Z,74.60
2022-10-11T03:52:10.217Z,74.60
2022-10-11T03:54:36.976Z,74.50
2022-10-11T03:57:04.069Z,74.50
2022-10-11T03:59:30.887Z,74.40
2022-10-11T04:01:57.581Z,74.50
2022-10-11T04:04:24.428Z,74.50
2022-10-11T04:06:51.318Z,74.50
2022-10-11T04:09:18.095Z,74.80
2022-10-11T04:11:45.003Z,74.80
2022-10-11T04:14:11.696Z,74.80
2022-10-11T04:16:41.291Z,74.80
2022-10-11T04:19:08.141Z,74.80
2022-10-11T04:21:34.903Z,74.90
2022-10-11T04:24:01.753Z,74.90
2022-10-11T04:26:28.541Z,74.90
2022-10-11T04:28:55.437Z,74.80
2022-10-11T04:31:22.439Z,74.80
2022-10-11T04:33:49.271Z,74.80
2022-10-11T04:36:16.065Z,74.80
2022-10-11T04:38:42.921Z,74.80
2022-10-11T04:41:11.642Z,74.90
2022-10-11T04:43:38.577Z,74.90
2022-10-11T04:46:06.621Z,74.90
2022-10-11T04:48:33.824Z,75.00
2022-10-11T04:51:00.740Z,74.90
2022-10-11T04:53:27.617Z,75.00
2022-10-11T04:56:03.689Z,75.00
2022-10-11T04:58:32.195Z,75.10
2022-10-11T05:00:58.941Z,75.20
2022-10-11T05:03:26.351Z,75.30
2022-10-11T05:05:53.515Z,75.40
2022-10-11T05:08:20.442Z,75.70
2022-10-11T05:10:57.710Z,75.60
2022-10-11T05:13:25.795Z,75.60
2022-10-11T05:15:52.966Z,75.60
2022-10-11T05:18:20.200Z,75.60
2022-10-11T05:20:47.419Z,75.60
2022-10-11T05:23:14.490Z,75.50
2022-10-11T05:25:41.777Z,75.60
2022-10-11T05:28:08.598Z,75.60
2022-10-11T05:30:35.432Z,75.50
2022-10-11T05:33:02.378Z,75.60
2022-10-11T05:35:29.241Z,75.50
2022-10-11T05:37:56.019Z,75.60
2022-10-11T05:40:22.766Z,75.70
2022-10-11T05:42:49.507Z,75.70
2022-10-11T05:45:16.306Z,75.70
2022-10-11T05:47:43.381Z,75.70
2022-10-11T05:50:10.346Z,75.70
2022-10-11T05:52:37.173Z,75.90
2022-10-11T05:55:04.780Z,76.00
2022-10-11T05:57:31.574Z,76.00
2022-10-11T05:59:58.333Z,76.20
2022-10-11T06:02:25.134Z,76.20
2022-10-11T06:04:51.875Z,76.20
2022-10-11T06:07:18.587Z,76.30
2022-10-11T06:09:45.424Z,76.30
2022-10-11T06:12:12.404Z,76.30
2022-10-11T06:14:39.160Z,76.40
2022-10-11T06:17:05.908Z,76.40
2022-10-11T06:19:32.731Z,76.60
2022-10-11T06:21:59.572Z,76.70
2022-10-11T06:24:26.374Z,76.80
2022-10-11T06:26:53.472Z,76.90
2022-10-11T06:29:20.341Z,77.10
2022-10-11T06:31:48.664Z,77.30
2022-10-11T06:34:15.985Z,77.30
2022-10-11T06:36:42.772Z,77.40
2022-10-11T06:39:09.511Z,77.50
2022-10-11T06:41:36.290Z,77.60
2022-10-11T06:44:03.062Z,77.70
2022-10-11T06:46:31.821Z,77.70
2022-10-11T06:48:58.844Z,77.80
2022-10-11T06:51:25.938Z,77.80
2022-10-11T06:53:56.751Z,77.90
2022-10-11T06:56:24.826Z,78.00
2022-10-11T06:58:52.856Z,78.00
2022-10-11T07:01:21.496Z,78.00
2022-10-11T07:03:48.937Z,77.90
2022-10-11T07:06:19.243Z,78.10
2022-10-11T07:08:46.529Z,78.30
2022-10-11T07:11:16.006Z,78.50
2022-10-11T07:13:43.347Z,78.60
2022-10-11T07:16:12.776Z,78.60
2022-10-11T07:18:40.047Z,78.70
2022-10-11T07:21:11.190Z,78.70
2022-10-11T07:23:38.516Z,78.60
2022-10-11T07:26:07.435Z,78.40
2022-10-11T07:28:36.004Z,78.20
2022-10-11T07:31:08.418Z,78.10
2022-10-11T07:33:35.282Z,78.00
2022-10-11T07:36:02.538Z,77.90
2022-10-11T07:38:29.696Z,78.00
2022-10-11T07:40:56.787Z,77.90
2022-10-11T07:43:24.480Z,77.80
2022-10-11T07:45:55.548Z,77.50
2022-10-11T07:48:22.542Z,77.20
2022-10-11T07:50:49.524Z,77.10
2022-10-11T07:53:16.322Z,77.10
2022-10-11T07:55:43.090Z,77.10
2022-10-11T07:58:11.546Z,76.90
2022-10-11T08:00:38.863Z,76.80
2022-10-11T08:03:06.897Z,77.10
2022-10-11T08:05:34.275Z,78.00
2022-10-11T08:08:01.020Z,78.10
2022-10-11T08:10:27.986Z,78.00
2022-10-11T08:12:54.769Z,78.80
2022-10-11T08:15:21.929Z,80.40
2022-10-11T08:17:48.889Z,81.00
2022-10-11T08:20:15.724Z,81.70
2022-10-11T08:22:42.459Z,80.00
2022-10-11T08:25:09.496Z,77.70
2022-10-11T08:27:36.490Z,74.60
2022-10-11T08:30:04.699Z,72.30
2022-10-11T08:32:31.429Z,70.60
2022-10-11T08:34:58.265Z,68.80
2022-10-11T08:37:25.042Z,66.00
2022-10-11T08:39:51.872Z,66.10
2022-10-11T08:42:38.757Z,65.90
2022-10-11T08:45:16.850Z,62.60
2022-10-11T08:47:45.174Z,61.90
2022-10-11T08:50:22.010Z,60.50
2022-10-11T08:52:54.147Z,57.20
2022-10-11T08:55:37.850Z,57.60
2022-10-11T08:58:04.942Z,56.60
2022-10-11T09:00:35.296Z,55.60
2022-10-11T09:03:26.093Z,55.70
2022-10-11T09:06:06.095Z,53.20
2022-10-11T09:09:07.740Z,53.60
2022-10-11T09:12:21.302Z,53.20
2022-10-11T09:15:15.365Z,51.80
2022-10-11T09:17:51.239Z,51.40
2022-10-11T09:20:38.237Z,47.00
2022-10-11T09:23:16.123Z,46.60
2022-10-11T09:25:49.533Z,45.30
2022-10-11T09:28:35.183Z,45.20
2022-10-11T09:31:02.060Z,44.60
2022-10-11T09:33:43.961Z,44.20
2022-10-11T09:36:36.133Z,43.00
2022-10-11T09:39:35.395Z,42.10
2022-10-11T09:42:05.487Z,41.60
2022-10-11T09:44:48.381Z,40.90
2022-10-11T09:47:19.497Z,41.10
2022-10-11T09:50:06.611Z,41.10
2022-10-11T09:52:33.754Z,40.10
2022-10-11T09:55:02.327Z,39.90
2022-10-11T09:57:33.035Z,40.60
2022-10-11T10:00:01.797Z,40.90
2022-10-11T10:02:50.127Z,38.50
2022-10-11T10:05:25.238Z,38.10
2022-10-11T10:08:09.824Z,38.40
2022-10-11T10:10:43.784Z,37.20
2022-10-11T10:13:51.877Z,36.20
2022-10-11T10:16:31.697Z,34.70
2022-10-11T10:19:21.546Z,35.30
2022-10-11T10:21:50.934Z,35.50
2022-10-11T10:24:34.524Z,35.60
2022-10-11T10:27:21.117Z,35.60
2022-10-11T10:30:08.150Z,35.80
2022-10-11T10:32:57.924Z,34.90
2022-10-11T10:35:48.542Z,34.30
2022-10-11T10:38:40.370Z,35.40
2022-10-11T10:41:12.702Z,35.40
2022-10-11T10:43:41.851Z,33.80
2022-10-11T10:46:34.433Z,33.20
2022-10-11T10:52:47.862Z,32.50
2022-10-11T10:55:39.494Z,31.60
2022-10-11T10:58:07.213Z,31.60
2022-10-11T11:00:45.482Z,31.00
2022-10-11T11:03:28.694Z,30.60
2022-10-11T11:06:06.405Z,30.90
2022-10-11T11:08:54.827Z,30.50
2022-10-11T11:11:44.238Z,29.90
2022-10-11T11:14:34.319Z,28.30
2022-10-11T11:17:06.177Z,28.40
2022-10-11T11:20:00.972Z,29.90
2022-10-11T11:22:45.998Z,31.60
2022-10-11T11:25:25.643Z,32.10
2022-10-11T11:28:25.386Z,34.40
2022-10-11T11:31:18.365Z,32.70
2022-10-11T11:34:03.324Z,32.50
2022-10-11T11:36:56.453Z,34.30
2022-10-11T11:39:32.329Z,35.00
2022-10-11T11:42:05.286Z,33.40
2022-10-11T11:44:47.191Z,32.70
2022-10-11T11:47:43.512Z,31.90
2022-10-11T11:50:15.235Z,31.30
2022-10-11T11:52:48.084Z,30.40
2022-10-11T11:55:25.987Z,29.80
2022-10-11T11:58:11.875Z,28.70
2022-10-11T12:01:03.800Z,28.90
2022-10-11T12:03:41.415Z,28.90
2022-10-11T12:06:14.742Z,29.60
2022-10-11T12:08:45.887Z,29.90
2022-10-11T12:11:39.062Z,30.10
2022-10-11T12:14:23.211Z,29.80
2022-10-11T12:17:22.487Z,30.10
2022-10-11T12:20:09.299Z,30.30
2022-10-11T12:23:01.507Z,30.90
2022-10-11T12:25:33.146Z,32.80
2022-10-11T12:28:01.908Z,34.80
2022-10-11T12:30:47.073Z,35.50
2022-10-11T12:33:41.946Z,34.80
2022-10-11T12:36:23.741Z,34.10
2022-10-11T12:39:18.661Z,32.90
2022-10-11T12:41:51.359Z,32.60
2022-10-11T12:44:26.683Z,31.60
2022-10-11T12:46:53.676Z,31.40
2022-10-11T12:49:26.573Z,32.30
2022-10-11T12:52:18.310Z,32.50
2022-10-11T12:55:10.649Z,33.40
2022-10-11T12:57:46.535Z,34.30
2022-10-11T13:00:32.228Z,34.80
2022-10-11T13:03:02.289Z,35.50
2022-10-11T13:05:44.764Z,36.20
2022-10-11T13:08:18.705Z,36.30
2022-10-11T13:10:47.228Z,37.30
2022-10-11T13:13:30.009Z,37.90
2022-10-11T13:15:59.048Z,38.70
2022-10-11T13:18:26.829Z,39.10
2022-10-11T13:20:54.575Z,38.90
2022-10-11T13:23:27.444Z,39.10
2022-10-11T13:25:55.432Z,39.70
2022-10-11T13:28:23.626Z,40.00
2022-10-11T13:30:54.440Z,41.20
2022-10-11T13:33:32.392Z,41.40
2022-10-11T13:36:04.194Z,39.30
2022-10-11T13:38:36.791Z,38.20
2022-10-11T13:41:07.132Z,36.50
2022-10-11T13:43:34.995Z,35.40
2022-10-11T13:46:06.568Z,33.80
2022-10-11T13:48:40.973Z,32.50
2022-10-11T13:51:26.373Z,32.20
2022-10-11T13:53:58.909Z,32.40
2022-10-11T13:56:27.484Z,32.50
2022-10-11T13:58:54.837Z,32.00
2022-10-11T14:01:37.019Z,32.00
2022-10-11T14:04:06.997Z,31.10
2022-10-11T14:06:43.758Z,30.90
2022-10-11T14:09:24.989Z,30.40
2022-10-11T14:11:53.434Z,30.20
2022-10-11T14:14:35.720Z,30.50
2022-10-11T14:17:32.567Z,30.90
2022-10-11T14:20:17.744Z,31.20
2022-10-11T14:22:45.145Z,30.30
2022-10-11T14:25:13.131Z,30.40
2022-10-11T14:27:39.989Z,30.90
2022-10-11T14:30:31.389Z,31.10
2022-10-11T14:33:01.297Z,30.90
2022-10-11T14:35:31.120Z,30.50
2022-10-11T14:37:58.852Z,31.00
2022-10-11T14:40:29.091Z,31.70
2022-10-11T14:42:56.652Z,31.50
2022-10-11T14:45:23.689Z,31.90
2022-10-11T14:47:51.045Z,32.90
2022-10-11T14:50:27.015Z,33.90
2022-10-11T14:52:54.422Z,35.30
2022-10-11T14:55:21.593Z,35.90
2022-10-11T14:57:48.432Z,37.20
2022-10-11T15:00:25.447Z,37.40
2022-10-11T15:02:53.395Z,37.70
2022-10-11T15:05:22.100Z,37.90
2022-10-11T15:07:50.009Z,37.80
2022-10-11T15:10:21.706Z,37.20
2022-10-11T15:12:50.188Z,36.90
2022-10-11T15:15:22.672Z,36.80
2022-10-11T15:17:53.310Z,36.70
2022-10-11T15:20:42.098Z,37.10
2022-10-11T15:23:11.226Z,37.10
2022-10-11T15:25:39.992Z,36.70
2022-10-11T15:28:08.273Z,36.60
2022-10-11T15:30:41.467Z,36.50
2022-10-11T15:33:09.113Z,36.50
2022-10-11T15:35:35.984Z,36.60
2022-10-11T15:38:03.261Z,36.70
2022-10-11T15:40:37.331Z,36.90
2022-10-11T15:43:04.654Z,37.00
2022-10-11T15:45:31.631Z,37.30
2022-10-11T15:47:59.188Z,37.40
2022-10-11T15:50:34.762Z,37.50
2022-10-11T15:53:05.280Z,37.70
2022-10-11T15:55:34.215Z,38.00
2022-10-11T15:58:01.649Z,38.10
2022-10-11T16:00:29.693Z,38.30
2022-10-11T16:02:57.990Z,38.60
2022-10-11T16:05:26.531Z,38.80
2022-10-11T16:07:54.585Z,39.00
2022-10-11T16:10:24.553Z,39.60
2022-10-11T16:12:51.424Z,40.30
2022-10-11T16:15:18.844Z,40.70
2022-10-11T16:17:46.729Z,41.10
2022-10-11T16:20:14.347Z,41.50
2022-10-11T16:22:41.657Z,41.80
2022-10-11T16:25:08.403Z,42.10
2022-10-11T16:27:35.418Z,42.70
2022-10-11T16:30:02.683Z,43.40
2022-10-11T16:32:30.820Z,43.90
2022-10-11T16:34:57.600Z,44.40
2022-10-11T16:37:24.343Z,45.00
2022-10-11T16:39:51.128Z,45.50
2022-10-11T16:42:17.938Z,46.00
2022-10-11T16:44:45.042Z,46.30
2022-10-11T16:47:11.758Z,46.90
2022-10-11T16:49:38.855Z,47.40
2022-10-11T16:52:05.830Z,47.90
2022-10-11T16:54:32.735Z,48.10
2022-10-11T16:56:59.949Z,48.50
2022-10-11T16:59:27.331Z,48.90
2022-10-11T17:01:54.193Z,49.30
2022-10-11T17:04:21.656Z,49.50
2022-10-11T17:06:48.458Z,49.90
2022-10-11T17:09:15.960Z,50.30
2022-10-11T17:11:43.432Z,50.70
2022-10-11T17:14:12.233Z,51.10
2022-10-11T17:16:40.243Z,51.30
2022-10-11T17:19:14.531Z,51.60
2022-10-11T17:21:42.012Z,52.10
2022-10-11T17:24:09.799Z,52.30
2022-10-11T17:26:36.577Z,52.60
2022-10-11T17:29:03.449Z,52.90
2022-10-11T17:31:30.636Z,53.10
2022-10-11T17:34:01.336Z,53.50
2022-10-11T17:36:31.923Z,53.80
2022-10-11T17:39:00.680Z,54.00
2022-10-11T17:41:31.783Z,54.10
2022-10-11T17:43:59.625Z,54.20
2022-10-11T17:46:28.032Z,54.40
2022-10-11T17:48:55.599Z,54.60
2022-10-11T17:51:22.672Z,54.80
2022-10-11T17:53:51.069Z,55.00
2022-10-11T17:56:26.718Z,55.10
2022-10-11T17:58:56.583Z,55.40
2022-10-11T18:01:25.930Z,55.50
2022-10-11T18:03:56.604Z,55.70
2022-10-11T18:06:24.631Z,55.90
2022-10-11T18:08:51.456Z,56.10
2022-10-11T18:11:20.166Z,56.30
2022-10-11T18:13:51.775Z,56.50
2022-10-11T18:16:21.677Z,56.70
2022-10-11T18:18:48.769Z,56.80
2022-10-11T18:21:18.357Z,57.00
2022-10-11T18:23:45.966Z,57.20
2022-10-11T18:26:17.248Z,57.40
2022-10-11T18:28:44.667Z,57.50
2022-10-11T18:31:14.859Z,57.60
2022-10-11T18:33:42.905Z,57.80
2022-10-11T18:36:13.214Z,57.90
2022-10-11T18:38:43.935Z,58.10
2022-10-11T18:41:12.480Z,58.30
2022-10-11T18:43:39.303Z,58.40
2022-10-11T18:46:16.424Z,58.60
2022-10-11T18:48:44.865Z,58.70
2022-10-11T18:51:14.912Z,58.80
2022-10-11T18:53:42.411Z,59.00
2022-10-11T18:56:10.625Z,59.10
2022-10-11T18:58:38.839Z,59.30
2022-10-11T19:01:20.618Z,59.60
2022-10-11T19:03:49.523Z,59.80
2022-10-11T19:06:18.729Z,59.70
2022-10-11T19:08:47.254Z,59.70
2022-10-11T19:11:15.698Z,59.80
2022-10-11T19:13:43.366Z,59.80
2022-10-11T19:16:12.695Z,60.00
2022-10-11T19:18:44.077Z,60.20
2022-10-11T19:21:13.095Z,60.20
2022-10-11T19:23:45.270Z,60.30
2022-10-11T19:26:20.548Z,60.50
2022-10-11T19:28:48.349Z,60.70
2022-10-11T19:31:16.969Z,60.70
2022-10-11T19:33:45.412Z,60.90
2022-10-11T19:36:13.998Z,60.90
2022-10-11T19:38:45.063Z,61.00
2022-10-11T19:41:13.772Z,61.10
2022-10-11T19:43:40.684Z,61.20
2022-10-11T19:46:10.010Z,61.20
2022-10-11T19:48:38.182Z,61.40
2022-10-11T19:51:14.507Z,61.50
2022-10-11T19:53:41.579Z,61.60
2022-10-11T19:56:11.272Z,61.70
2022-10-11T19:58:38.935Z,61.70
2022-10-11T20:01:07.368Z,61.90
2022-10-11T20:03:34.676Z,62.10
2022-10-11T20:06:03.115Z,62.10
2022-10-11T20:08:31.317Z,62.20
2022-10-11T20:11:00.206Z,62.20
2022-10-11T20:13:32.481Z,62.20
2022-10-11T20:16:13.617Z,62.30
2022-10-11T20:18:40.952Z,62.40
2022-10-11T20:21:12.092Z,62.30
2022-10-11T20:26:15.967Z,62.80
2022-10-11T20:28:44.425Z,63.00
2022-10-11T20:31:14.717Z,63.10
2022-10-11T20:33:42.041Z,63.10
2022-10-11T20:36:11.362Z,63.20
2022-10-11T20:38:41.626Z,63.20
2022-10-11T20:41:10.499Z,63.30
2022-10-11T20:43:37.528Z,63.40
2022-10-11T20:46:07.502Z,63.50
2022-10-11T20:48:35.656Z,63.60
2022-10-11T20:51:03.159Z,63.60
2022-10-11T20:53:30.357Z,63.90
2022-10-11T20:55:58.348Z,64.00
2022-10-11T20:58:25.176Z,64.00
2022-10-11T21:00:52.158Z,64.10
2022-10-11T21:03:19.012Z,64.10
2022-10-11T21:05:45.876Z,64.10
2022-10-11T21:08:12.983Z,64.20
2022-10-11T21:10:40.092Z,64.20
2022-10-11T21:13:06.863Z,64.30
2022-10-11T21:15:33.719Z,64.40
2022-10-11T21:18:00.533Z,64.40
2022-10-11T21:20:27.423Z,64.40
2022-10-11T21:22:54.163Z,64.40
2022-10-11T21:25:21.130Z,64.60
2022-10-11T21:27:47.995Z,64.60
2022-10-11T21:30:14.815Z,64.60
2022-10-11T21:32:41.609Z,64.60
2022-10-11T21:35:08.399Z,64.60
2022-10-11T21:37:35.508Z,64.60
2022-10-11T21:40:02.866Z,64.80
2022-10-11T21:42:29.775Z,64.90
2022-10-11T21:44:56.526Z,65.10
2022-10-11T21:47:23.356Z,65.20
2022-10-11T21:49:50.265Z,65.20
2022-10-11T21:52:17.180Z,65.30
2022-10-11T21:54:44.019Z,65.40
2022-10-11T21:57:10.799Z,65.40
2022-10-11T21:59:37.804Z,65.50
2022-10-11T22:02:04.917Z,65.80
2022-10-11T22:04:31.721Z,66.00
2022-10-11T22:06:58.496Z,66.30
2022-10-11T22:09:25.483Z,66.60
2022-10-11T22:11:52.195Z,66.80
2022-10-11T22:14:19.038Z,66.90
2022-10-11T22:16:45.755Z,66.80
2022-10-11T22:19:12.829Z,66.90
2022-10-11T22:21:44.129Z,67.00
2022-10-11T22:24:12.215Z,67.10
2022-10-11T22:26:39.004Z,67.00
2022-10-11T22:29:05.819Z,67.00
2022-10-11T22:31:32.578Z,67.00
2022-10-11T22:34:01.102Z,67.00
2022-10-11T22:36:30.331Z,67.00
2022-10-11T22:38:57.617Z,67.10
2022-10-11T22:41:24.492Z,67.10
2022-10-11T22:43:51.770Z,67.10
2022-10-11T22:46:18.803Z,67.10
2022-10-11T22:48:45.733Z,67.20
2022-10-11T22:51:12.688Z,67.20
2022-10-11T22:53:39.456Z,67.20
2022-10-11T22:56:06.544Z,67.20
2022-10-11T22:58:33.390Z,67.30
2022-10-11T23:01:10.223Z,67.40
2022-10-11T23:03:37.537Z,67.50
2022-10-11T23:06:04.699Z,67.50
2022-10-11T23:08:31.632Z,67.50
2022-10-11T23:11:06.698Z,67.60
2022-10-11T23:13:33.920Z,67.70
2022-10-11T23:16:08.997Z,67.60
2022-10-11T23:18:36.515Z,67.80
2022-10-11T23:21:04.778Z,67.70
2022-10-11T23:23:32.035Z,67.70
2022-10-11T23:26:11.584Z,67.80
2022-10-11T23:28:38.943Z,67.90
2022-10-11T23:31:10.991Z,67.90
2022-10-11T23:33:38.167Z,68.00
2022-10-11T23:36:05.718Z,68.00
2022-10-11T23:38:32.582Z,68.00
2022-10-11T23:40:59.410Z,68.20
2022-10-11T23:43:26.186Z,68.20
2022-10-11T23:45:54.899Z,68.20
2022-10-11T23:48:21.745Z,68.10
2022-10-11T23:50:48.495Z,68.10
2022-10-11T23:53:15.365Z,68.20
2022-10-11T23:55:42.528Z,68.20
2022-10-11T23:58:09.359Z,68.20
